sensor_id;sensor_type;location;lat;lon;timestamp;pressure;altitude;pressure_sealevel;temperature;humidity
64711;BME280;51139;45.626;6.850;2023-02-20T00:00:38;82734.81;;;2.35;54.21
64711;BME280;51139;45.626;6.850;2023-02-20T00:03:05;82734.56;;;2.39;53.08
64711;BME280;51139;45.626;6.850;2023-02-20T00:05:31;82739.72;;;2.50;53.24
64711;BME280;51139;45.626;6.850;2023-02-20T00:07:56;82733.16;;;2.38;53.36
64711;BME280;51139;45.626;6.850;2023-02-20T00:10:21;82738.47;;;2.21;53.92
64711;BME280;51139;45.626;6.850;2023-02-20T00:12:48;82740.56;;;2.33;53.86
64711;BME280;51139;45.626;6.850;2023-02-20T00:15:15;82740.16;;;2.54;52.85
64711;BME280;51139;45.626;6.850;2023-02-20T00:17:43;82741.31;;;2.23;54.06
64711;BME280;51139;45.626;6.850;2023-02-20T00:20:13;82742.75;;;2.18;54.60
64711;BME280;51139;45.626;6.850;2023-02-20T00:22:39;82737.53;;;2.18;53.95
64711;BME280;51139;45.626;6.850;2023-02-20T00:25:05;82734.75;;;2.10;54.49
64711;BME280;51139;45.626;6.850;2023-02-20T00:27:30;82740.78;;;2.30;53.75
64711;BME280;51139;45.626;6.850;2023-02-20T00:29:55;82738.69;;;2.23;54.16
64711;BME280;51139;45.626;6.850;2023-02-20T00:32:21;82737.81;;;2.14;54.30
64711;BME280;51139;45.626;6.850;2023-02-20T00:34:46;82735.94;;;2.09;54.55
64711;BME280;51139;45.626;6.850;2023-02-20T00:37:11;82738.94;;;2.19;54.66
64711;BME280;51139;45.626;6.850;2023-02-20T00:39:37;82731.63;;;2.12;54.62
64711;BME280;51139;45.626;6.850;2023-02-20T00:42:02;82733.03;;;2.18;55.02
64711;BME280;51139;45.626;6.850;2023-02-20T00:44:28;82733.00;;;2.24;54.60
64711;BME280;51139;45.626;6.850;2023-02-20T00:46:53;82734.19;;;2.23;53.83
64711;BME280;51139;45.626;6.850;2023-02-20T00:49:19;82733.44;;;2.28;54.53
64711;BME280;51139;45.626;6.850;2023-02-20T00:51:44;82727.94;;;2.32;53.75
64711;BME280;51139;45.626;6.850;2023-02-20T00:54:10;82733.47;;;2.23;52.87
64711;BME280;51139;45.626;6.850;2023-02-20T00:56:35;82732.81;;;2.16;53.84
64711;BME280;51139;45.626;6.850;2023-02-20T00:59:00;82734.81;;;1.93;54.98
64711;BME280;51139;45.626;6.850;2023-02-20T01:01:26;82735.03;;;2.01;54.55
64711;BME280;51139;45.626;6.850;2023-02-20T01:03:51;82738.78;;;2.11;54.52
64711;BME280;51139;45.626;6.850;2023-02-20T01:06:17;82738.31;;;2.07;53.59
64711;BME280;51139;45.626;6.850;2023-02-20T01:08:42;82731.09;;;2.25;53.74
64711;BME280;51139;45.626;6.850;2023-02-20T01:11:08;82740.88;;;2.18;53.88
64711;BME280;51139;45.626;6.850;2023-02-20T01:13:33;82737.25;;;2.27;52.80
64711;BME280;51139;45.626;6.850;2023-02-20T01:15:58;82733.22;;;2.26;52.82
64711;BME280;51139;45.626;6.850;2023-02-20T01:18:24;82744.28;;;2.02;53.40
64711;BME280;51139;45.626;6.850;2023-02-20T01:20:50;82738.03;;;2.16;52.40
64711;BME280;51139;45.626;6.850;2023-02-20T01:23:15;82737.94;;;2.33;51.51
64711;BME280;51139;45.626;6.850;2023-02-20T01:25:41;82741.28;;;2.28;51.52
64711;BME280;51139;45.626;6.850;2023-02-20T01:28:06;82736.81;;;2.23;51.36
64711;BME280;51139;45.626;6.850;2023-02-20T01:30:31;82730.63;;;2.21;51.82
64711;BME280;51139;45.626;6.850;2023-02-20T01:32:57;82724.75;;;2.09;52.31
64711;BME280;51139;45.626;6.850;2023-02-20T01:35:22;82733.13;;;2.01;51.54
64711;BME280;51139;45.626;6.850;2023-02-20T01:37:47;82735.66;;;2.13;50.86
64711;BME280;51139;45.626;6.850;2023-02-20T01:40:16;82727.06;;;2.18;50.67
64711;BME280;51139;45.626;6.850;2023-02-20T01:42:41;82723.56;;;2.10;50.65
64711;BME280;51139;45.626;6.850;2023-02-20T01:45:15;82737.41;;;1.99;51.32
64711;BME280;51139;45.626;6.850;2023-02-20T01:47:41;82725.56;;;1.92;51.41
64711;BME280;51139;45.626;6.850;2023-02-20T01:50:06;82718.41;;;1.98;50.93
64711;BME280;51139;45.626;6.850;2023-02-20T01:52:34;82716.06;;;1.95;51.14
64711;BME280;51139;45.626;6.850;2023-02-20T01:55:03;82718.00;;;1.88;51.06
64711;BME280;51139;45.626;6.850;2023-02-20T01:57:32;82718.75;;;1.83;50.90
64711;BME280;51139;45.626;6.850;2023-02-20T02:00:06;82711.81;;;1.92;50.75
64711;BME280;51139;45.626;6.850;2023-02-20T02:02:37;82701.31;;;1.97;49.92
64711;BME280;51139;45.626;6.850;2023-02-20T02:05:06;82707.94;;;1.98;50.23
64711;BME280;51139;45.626;6.850;2023-02-20T02:07:32;82697.03;;;2.00;49.82
64711;BME280;51139;45.626;6.850;2023-02-20T02:09:59;82690.31;;;2.10;48.96
64711;BME280;51139;45.626;6.850;2023-02-20T02:12:26;82686.97;;;2.10;49.10
64711;BME280;51139;45.626;6.850;2023-02-20T02:14:52;82681.28;;;2.11;49.41
64711;BME280;51139;45.626;6.850;2023-02-20T02:26:01;82671.25;;;2.21;48.06
64711;BME280;51139;45.626;6.850;2023-02-20T02:29:09;82660.53;;;2.19;48.46
64711;BME280;51139;45.626;6.850;2023-02-20T02:31:58;82663.69;;;2.12;48.99
64711;BME280;51139;45.626;6.850;2023-02-20T02:37:40;82656.03;;;2.19;48.19
64711;BME280;51139;45.626;6.850;2023-02-20T02:42:56;82654.34;;;2.22;48.09
64711;BME280;51139;45.626;6.850;2023-02-20T02:45:36;82642.97;;;2.19;48.22
64711;BME280;51139;45.626;6.850;2023-02-20T02:48:34;82641.66;;;2.32;48.20
64711;BME280;51139;45.626;6.850;2023-02-20T02:51:16;82640.69;;;2.35;48.39
64711;BME280;51139;45.626;6.850;2023-02-20T02:54:06;82648.81;;;2.31;48.10
64711;BME280;51139;45.626;6.850;2023-02-20T02:56:38;82650.25;;;2.32;48.16
64711;BME280;51139;45.626;6.850;2023-02-20T02:59:06;82648.41;;;2.52;47.47
64711;BME280;51139;45.626;6.850;2023-02-20T03:01:36;82644.06;;;2.60;47.22
64711;BME280;51139;45.626;6.850;2023-02-20T03:04:06;82648.69;;;2.73;47.25
64711;BME280;51139;45.626;6.850;2023-02-20T03:06:35;82653.06;;;2.65;46.60
64711;BME280;51139;45.626;6.850;2023-02-20T03:09:09;82653.09;;;2.59;47.02
64711;BME280;51139;45.626;6.850;2023-02-20T03:11:37;82655.75;;;2.54;47.29
64711;BME280;51139;45.626;6.850;2023-02-20T03:14:08;82656.69;;;2.26;47.84
64711;BME280;51139;45.626;6.850;2023-02-20T03:17:00;82650.28;;;2.27;47.71
64711;BME280;51139;45.626;6.850;2023-02-20T03:19:32;82654.34;;;2.22;48.35
64711;BME280;51139;45.626;6.850;2023-02-20T03:22:01;82645.47;;;2.31;47.70
64711;BME280;51139;45.626;6.850;2023-02-20T03:24:32;82647.41;;;2.30;47.30
64711;BME280;51139;45.626;6.850;2023-02-20T03:27:18;82646.81;;;2.43;47.49
64711;BME280;51139;45.626;6.850;2023-02-20T03:29:44;82640.75;;;2.29;47.37
64711;BME280;51139;45.626;6.850;2023-02-20T03:32:11;82637.81;;;2.39;47.49
64711;BME280;51139;45.626;6.850;2023-02-20T03:34:58;82640.56;;;2.22;47.60
64711;BME280;51139;45.626;6.850;2023-02-20T03:37:46;82636.66;;;2.34;47.18
64711;BME280;51139;45.626;6.850;2023-02-20T03:40:31;82643.09;;;2.33;47.06
64711;BME280;51139;45.626;6.850;2023-02-20T03:43:17;82638.47;;;2.45;46.24
64711;BME280;51139;45.626;6.850;2023-02-20T03:46:02;82633.84;;;2.57;46.36
64711;BME280;51139;45.626;6.850;2023-02-20T03:48:40;82633.88;;;2.26;47.40
64711;BME280;51139;45.626;6.850;2023-02-20T03:51:08;82633.03;;;2.43;47.43
64711;BME280;51139;45.626;6.850;2023-02-20T03:53:53;82629.13;;;2.55;46.51
64711;BME280;51139;45.626;6.850;2023-02-20T03:59:13;82624.03;;;2.38;47.12
64711;BME280;51139;45.626;6.850;2023-02-20T04:01:42;82626.38;;;2.42;46.33
64711;BME280;51139;45.626;6.850;2023-02-20T04:04:13;82636.56;;;2.45;46.59
64711;BME280;51139;45.626;6.850;2023-02-20T04:06:42;82639.03;;;2.38;46.15
64711;BME280;51139;45.626;6.850;2023-02-20T04:09:16;82640.47;;;2.33;46.96
64711;BME280;51139;45.626;6.850;2023-02-20T04:12:23;82639.38;;;2.23;47.60
64711;BME280;51139;45.626;6.850;2023-02-20T04:14:51;82641.03;;;2.20;47.17
64711;BME280;51139;45.626;6.850;2023-02-20T04:17:23;82638.38;;;2.31;46.72
64711;BME280;51139;45.626;6.850;2023-02-20T04:19:49;82649.63;;;2.15;46.79
64711;BME280;51139;45.626;6.850;2023-02-20T04:22:19;82647.06;;;2.09;47.29
64711;BME280;51139;45.626;6.850;2023-02-20T04:24:51;82642.53;;;2.10;46.72
64711;BME280;51139;45.626;6.850;2023-02-20T04:27:19;82645.81;;;2.16;47.02
64711;BME280;51139;45.626;6.850;2023-02-20T04:29:45;82654.50;;;2.36;46.70
64711;BME280;51139;45.626;6.850;2023-02-20T04:32:10;82646.88;;;2.38;46.37
64711;BME280;51139;45.626;6.850;2023-02-20T04:34:36;82659.06;;;2.29;47.00
64711;BME280;51139;45.626;6.850;2023-02-20T04:37:20;82659.81;;;2.24;46.98
64711;BME280;51139;45.626;6.850;2023-02-20T04:39:46;82665.50;;;2.23;46.93
64711;BME280;51139;45.626;6.850;2023-02-20T04:42:12;82660.53;;;2.19;46.90
64711;BME280;51139;45.626;6.850;2023-02-20T04:44:37;82666.28;;;2.12;47.28
64711;BME280;51139;45.626;6.850;2023-02-20T04:47:06;82663.88;;;2.19;47.00
64711;BME280;51139;45.626;6.850;2023-02-20T04:49:33;82672.47;;;2.14;46.97
64711;BME280;51139;45.626;6.850;2023-02-20T04:51:59;82667.47;;;2.16;46.67
64711;BME280;51139;45.626;6.850;2023-02-20T04:54:24;82663.72;;;2.06;47.15
64711;BME280;51139;45.626;6.850;2023-02-20T04:56:50;82669.03;;;1.95;47.92
64711;BME280;51139;45.626;6.850;2023-02-20T04:59:16;82664.78;;;1.92;47.97
64711;BME280;51139;45.626;6.850;2023-02-20T05:01:41;82667.13;;;1.95;47.84
64711;BME280;51139;45.626;6.850;2023-02-20T05:04:15;82662.78;;;2.03;47.86
64711;BME280;51139;45.626;6.850;2023-02-20T05:06:50;82671.50;;;2.12;47.16
64711;BME280;51139;45.626;6.850;2023-02-20T05:09:16;82665.50;;;2.23;46.29
64711;BME280;51139;45.626;6.850;2023-02-20T05:11:42;82665.53;;;2.17;47.16
64711;BME280;51139;45.626;6.850;2023-02-20T05:14:08;82674.31;;;2.19;46.72
64711;BME280;51139;45.626;6.850;2023-02-20T05:16:35;82669.56;;;2.18;46.89
64711;BME280;51139;45.626;6.850;2023-02-20T05:19:00;82673.47;;;2.06;47.68
64711;BME280;51139;45.626;6.850;2023-02-20T05:21:26;82666.06;;;2.10;47.04
64711;BME280;51139;45.626;6.850;2023-02-20T05:24:11;82664.34;;;2.18;46.39
64711;BME280;51139;45.626;6.850;2023-02-20T05:26:36;82666.34;;;2.06;47.20
64711;BME280;51139;45.626;6.850;2023-02-20T05:29:02;82666.88;;;1.93;48.41
64711;BME280;51139;45.626;6.850;2023-02-20T05:31:27;82672.69;;;1.80;48.38
64711;BME280;51139;45.626;6.850;2023-02-20T05:33:52;82665.28;;;1.84;48.36
64711;BME280;51139;45.626;6.850;2023-02-20T05:36:18;82655.78;;;1.87;48.04
64711;BME280;51139;45.626;6.850;2023-02-20T05:38:43;82652.91;;;1.91;48.29
64711;BME280;51139;45.626;6.850;2023-02-20T05:41:16;82661.50;;;1.85;47.84
64711;BME280;51139;45.626;6.850;2023-02-20T05:43:42;82660.00;;;1.96;47.75
64711;BME280;51139;45.626;6.850;2023-02-20T05:46:07;82658.59;;;2.25;45.64
64711;BME280;51139;45.626;6.850;2023-02-20T05:48:33;82659.50;;;2.33;46.36
64711;BME280;51139;45.626;6.850;2023-02-20T05:50:58;82657.72;;;2.47;46.44
64711;BME280;51139;45.626;6.850;2023-02-20T05:53:27;82656.81;;;2.70;45.15
64711;BME280;51139;45.626;6.850;2023-02-20T05:55:52;82654.25;;;2.89;44.36
64711;BME280;51139;45.626;6.850;2023-02-20T05:58:18;82649.84;;;2.78;44.29
64711;BME280;51139;45.626;6.850;2023-02-20T06:00:43;82656.38;;;2.66;44.19
64711;BME280;51139;45.626;6.850;2023-02-20T06:03:08;82652.47;;;2.17;45.99
64711;BME280;51139;45.626;6.850;2023-02-20T06:05:34;82655.66;;;2.04;46.83
64711;BME280;51139;45.626;6.850;2023-02-20T06:08:00;82655.44;;;2.02;47.30
64711;BME280;51139;45.626;6.850;2023-02-20T06:10:25;82649.69;;;2.09;46.95
64711;BME280;51139;45.626;6.850;2023-02-20T06:12:50;82661.13;;;2.00;47.79
64711;BME280;51139;45.626;6.850;2023-02-20T06:15:16;82648.75;;;2.07;47.23
64711;BME280;51139;45.626;6.850;2023-02-20T06:17:41;82658.41;;;2.17;46.86
64711;BME280;51139;45.626;6.850;2023-02-20T06:20:07;82655.69;;;2.35;46.20
64711;BME280;51139;45.626;6.850;2023-02-20T06:22:33;82648.94;;;2.45;46.42
64711;BME280;51139;45.626;6.850;2023-02-20T06:24:58;82659.50;;;2.33;46.69
64711;BME280;51139;45.626;6.850;2023-02-20T06:27:23;82664.09;;;2.22;46.93
64711;BME280;51139;45.626;6.850;2023-02-20T06:29:49;82662.22;;;2.16;47.33
64711;BME280;51139;45.626;6.850;2023-02-20T06:32:15;82663.22;;;2.08;47.68
64711;BME280;51139;45.626;6.850;2023-02-20T06:34:43;82661.41;;;1.97;47.97
64711;BME280;51139;45.626;6.850;2023-02-20T06:37:08;82666.66;;;1.91;48.46
64711;BME280;51139;45.626;6.850;2023-02-20T06:39:34;82667.16;;;1.89;48.01
64711;BME280;51139;45.626;6.850;2023-02-20T06:42:00;82664.94;;;1.99;47.60
64711;BME280;51139;45.626;6.850;2023-02-20T06:44:25;82664.44;;;2.07;48.06
64711;BME280;51139;45.626;6.850;2023-02-20T06:46:50;82673.97;;;1.98;47.87
64711;BME280;51139;45.626;6.850;2023-02-20T06:49:16;82670.44;;;1.96;48.29
64711;BME280;51139;45.626;6.850;2023-02-20T06:51:41;82669.94;;;2.03;47.91
64711;BME280;51139;45.626;6.850;2023-02-20T06:54:09;82674.13;;;2.12;47.26
64711;BME280;51139;45.626;6.850;2023-02-20T06:56:36;82667.59;;;2.30;46.93
64711;BME280;51139;45.626;6.850;2023-02-20T06:59:03;82670.66;;;2.34;46.72
64711;BME280;51139;45.626;6.850;2023-02-20T07:01:35;82667.03;;;2.43;46.70
64711;BME280;51139;45.626;6.850;2023-02-20T07:04:03;82670.97;;;2.55;46.70
64711;BME280;51139;45.626;6.850;2023-02-20T07:06:29;82672.59;;;2.58;46.73
64711;BME280;51139;45.626;6.850;2023-02-20T07:08:54;82679.25;;;2.59;47.73
64711;BME280;51139;45.626;6.850;2023-02-20T07:11:21;82686.59;;;2.61;47.82
64711;BME280;51139;45.626;6.850;2023-02-20T07:13:47;82684.94;;;2.63;48.14
64711;BME280;51139;45.626;6.850;2023-02-20T07:16:13;82689.22;;;2.61;48.29
64711;BME280;51139;45.626;6.850;2023-02-20T07:18:38;82688.59;;;2.80;47.36
64711;BME280;51139;45.626;6.850;2023-02-20T07:21:04;82690.13;;;2.94;47.94
64711;BME280;51139;45.626;6.850;2023-02-20T07:23:29;82690.41;;;2.90;48.57
64711;BME280;51139;45.626;6.850;2023-02-20T07:25:55;82685.13;;;3.21;47.31
64711;BME280;51139;45.626;6.850;2023-02-20T07:28:20;82689.41;;;3.43;47.22
64711;BME280;51139;45.626;6.850;2023-02-20T07:30:46;82685.28;;;3.73;45.95
64711;BME280;51139;45.626;6.850;2023-02-20T07:33:18;82681.22;;;4.10;46.11
64711;BME280;51139;45.626;6.850;2023-02-20T07:35:44;82685.75;;;4.29;46.00
64711;BME280;51139;45.626;6.850;2023-02-20T07:38:10;82682.53;;;4.68;44.74
64711;BME280;51139;45.626;6.850;2023-02-20T07:40:36;82684.16;;;5.04;43.66
64711;BME280;51139;45.626;6.850;2023-02-20T07:43:01;82681.16;;;5.40;43.52
64711;BME280;51139;45.626;6.850;2023-02-20T07:45:27;82685.91;;;5.82;41.14
64711;BME280;51139;45.626;6.850;2023-02-20T07:47:52;82677.47;;;5.97;40.97
64711;BME280;51139;45.626;6.850;2023-02-20T07:50:18;82683.88;;;6.02;40.40
64711;BME280;51139;45.626;6.850;2023-02-20T07:52:44;82684.66;;;6.24;40.79
64711;BME280;51139;45.626;6.850;2023-02-20T07:55:13;82690.22;;;6.55;40.07
64711;BME280;51139;45.626;6.850;2023-02-20T07:57:39;82675.78;;;7.54;38.77
64711;BME280;51139;45.626;6.850;2023-02-20T08:00:05;82680.03;;;7.94;37.82
64711;BME280;51139;45.626;6.850;2023-02-20T08:02:31;82674.97;;;8.04;35.58
64711;BME280;51139;45.626;6.850;2023-02-20T08:04:56;82685.16;;;7.42;36.50
64711;BME280;51139;45.626;6.850;2023-02-20T08:07:21;82674.09;;;8.01;36.61
64711;BME280;51139;45.626;6.850;2023-02-20T08:09:47;82672.94;;;8.18;36.45
64711;BME280;51139;45.626;6.850;2023-02-20T08:12:13;82681.16;;;8.07;34.02
64711;BME280;51139;45.626;6.850;2023-02-20T08:14:38;82677.38;;;8.75;34.69
64711;BME280;51139;45.626;6.850;2023-02-20T08:17:04;82679.19;;;7.99;34.32
64711;BME280;51139;45.626;6.850;2023-02-20T08:19:29;82681.13;;;8.43;33.57
64711;BME280;51139;45.626;6.850;2023-02-20T08:21:55;82683.75;;;8.88;34.08
64711;BME280;51139;45.626;6.850;2023-02-20T08:24:20;82682.00;;;8.98;33.87
64711;BME280;51139;45.626;6.850;2023-02-20T08:26:47;82672.16;;;9.07;31.77
64711;BME280;51139;45.626;6.850;2023-02-20T08:29:14;82678.50;;;9.97;31.57
64711;BME280;51139;45.626;6.850;2023-02-20T08:31:40;82684.59;;;10.30;32.25
64711;BME280;51139;45.626;6.850;2023-02-20T08:34:06;82680.84;;;10.64;31.88
64711;BME280;51139;45.626;6.850;2023-02-20T08:36:31;82678.50;;;11.09;30.93
64711;BME280;51139;45.626;6.850;2023-02-20T08:38:57;82686.50;;;11.60;31.73
64711;BME280;51139;45.626;6.850;2023-02-20T08:41:25;82689.91;;;11.53;32.71
64711;BME280;51139;45.626;6.850;2023-02-20T08:43:50;82677.31;;;11.61;31.03
64711;BME280;51139;45.626;6.850;2023-02-20T08:46:16;82671.59;;;12.16;31.48
64711;BME280;51139;45.626;6.850;2023-02-20T08:48:41;82673.50;;;12.76;30.20
64711;BME280;51139;45.626;6.850;2023-02-20T08:51:08;82668.72;;;12.74;30.37
64711;BME280;51139;45.626;6.850;2023-02-20T08:53:34;82671.59;;;12.86;31.11
64711;BME280;51139;45.626;6.850;2023-02-20T08:55:59;82670.91;;;12.33;30.60
64711;BME280;51139;45.626;6.850;2023-02-20T08:58:25;82661.50;;;13.02;29.67
64711;BME280;51139;45.626;6.850;2023-02-20T09:00:51;82664.97;;;12.60;29.88
64711;BME280;51139;45.626;6.850;2023-02-20T09:03:17;82665.22;;;12.54;31.09
64711;BME280;51139;45.626;6.850;2023-02-20T09:05:43;82666.94;;;12.42;31.43
64711;BME280;51139;45.626;6.850;2023-02-20T09:08:09;82662.16;;;12.58;29.35
64711;BME280;51139;45.626;6.850;2023-02-20T09:10:35;82656.41;;;12.96;31.81
64711;BME280;51139;45.626;6.850;2023-02-20T09:13:00;82658.41;;;13.51;29.82
64711;BME280;51139;45.626;6.850;2023-02-20T09:15:26;82659.44;;;13.65;28.74
64711;BME280;51139;45.626;6.850;2023-02-20T09:17:52;82655.00;;;14.15;27.76
64711;BME280;51139;45.626;6.850;2023-02-20T09:20:20;82658.22;;;14.13;29.66
64711;BME280;51139;45.626;6.850;2023-02-20T09:22:46;82662.22;;;13.85;30.23
64711;BME280;51139;45.626;6.850;2023-02-20T09:25:12;82655.78;;;13.88;29.56
64711;BME280;51139;45.626;6.850;2023-02-20T09:27:38;82666.81;;;13.84;31.04
64711;BME280;51139;45.626;6.850;2023-02-20T09:30:05;82665.13;;;14.26;30.13
64711;BME280;51139;45.626;6.850;2023-02-20T09:32:30;82666.69;;;14.49;28.81
64711;BME280;51139;45.626;6.850;2023-02-20T09:34:56;82660.22;;;14.23;31.58
64711;BME280;51139;45.626;6.850;2023-02-20T09:37:22;82662.94;;;13.31;31.88
64711;BME280;51139;45.626;6.850;2023-02-20T09:39:48;82660.59;;;14.09;29.96
64711;BME280;51139;45.626;6.850;2023-02-20T09:45:12;82657.94;;;14.19;31.13
64711;BME280;51139;45.626;6.850;2023-02-20T09:47:50;82662.44;;;14.17;30.94
64711;BME280;51139;45.626;6.850;2023-02-20T09:50:25;82664.59;;;14.48;31.47
64711;BME280;51139;45.626;6.850;2023-02-20T09:53:03;82663.50;;;15.20;30.11
64711;BME280;51139;45.626;6.850;2023-02-20T09:55:34;82653.81;;;13.89;32.17
64711;BME280;51139;45.626;6.850;2023-02-20T09:58:02;82657.91;;;13.62;33.46
64711;BME280;51139;45.626;6.850;2023-02-20T10:00:34;82661.00;;;12.68;34.17
64711;BME280;51139;45.626;6.850;2023-02-20T10:05:59;82662.69;;;12.21;33.62
64711;BME280;51139;45.626;6.850;2023-02-20T10:08:25;82656.53;;;12.18;35.18
64711;BME280;51139;45.626;6.850;2023-02-20T10:10:53;82665.91;;;12.19;34.58
64711;BME280;51139;45.626;6.850;2023-02-20T10:16:07;82661.47;;;12.39;33.57
64711;BME280;51139;45.626;6.850;2023-02-20T10:24:30;82668.78;;;11.12;35.22
64711;BME280;51139;45.626;6.850;2023-02-20T10:30:02;82660.69;;;11.61;36.26
64711;BME280;51139;45.626;6.850;2023-02-20T10:33:48;82665.84;;;11.59;35.22
64711;BME280;51139;45.626;6.850;2023-02-20T10:38:26;82667.03;;;11.07;39.17
64711;BME280;51139;45.626;6.850;2023-02-20T10:46:12;82661.44;;;12.04;37.17
64711;BME280;51139;45.626;6.850;2023-02-20T10:48:40;82660.97;;;11.90;34.64
64711;BME280;51139;45.626;6.850;2023-02-20T10:51:17;82670.66;;;10.45;37.35
64711;BME280;51139;45.626;6.850;2023-02-20T10:54:09;82660.72;;;10.94;39.78
64711;BME280;51139;45.626;6.850;2023-02-20T10:56:49;82664.56;;;11.34;37.67
64711;BME280;51139;45.626;6.850;2023-02-20T11:02:04;82654.13;;;11.36;39.29
64711;BME280;51139;45.626;6.850;2023-02-20T11:04:36;82658.81;;;11.53;37.90
64711;BME280;51139;45.626;6.850;2023-02-20T11:07:11;82653.75;;;11.15;37.15
64711;BME280;51139;45.626;6.850;2023-02-20T11:09:39;82646.22;;;11.79;36.18
64711;BME280;51139;45.626;6.850;2023-02-20T11:12:05;82647.34;;;11.94;36.83
64711;BME280;51139;45.626;6.850;2023-02-20T11:14:38;82657.66;;;10.73;36.40
64711;BME280;51139;45.626;6.850;2023-02-20T11:17:09;82650.31;;;11.73;36.50
64711;BME280;51139;45.626;6.850;2023-02-20T11:19:44;82647.06;;;11.82;35.31
64711;BME280;51139;45.626;6.850;2023-02-20T11:22:11;82641.69;;;11.47;38.15
64711;BME280;51139;45.626;6.850;2023-02-20T11:24:39;82642.00;;;10.92;34.31
64711;BME280;51139;45.626;6.850;2023-02-20T11:29:37;82641.75;;;11.06;39.27
64711;BME280;51139;45.626;6.850;2023-02-20T11:32:34;82632.81;;;10.60;36.19
64711;BME280;51139;45.626;6.850;2023-02-20T11:37:51;82625.22;;;11.91;34.20
64711;BME280;51139;45.626;6.850;2023-02-20T11:40:32;82622.69;;;11.76;36.07
64711;BME280;51139;45.626;6.850;2023-02-20T11:43:18;82623.34;;;10.42;36.43
64711;BME280;51139;45.626;6.850;2023-02-20T11:45:45;82612.31;;;10.94;35.70
64711;BME280;51139;45.626;6.850;2023-02-20T11:48:13;82612.97;;;11.02;36.33
64711;BME280;51139;45.626;6.850;2023-02-20T11:53:21;82612.47;;;11.55;39.33
64711;BME280;51139;45.626;6.850;2023-02-20T11:55:49;82613.84;;;11.99;37.33
64711;BME280;51139;45.626;6.850;2023-02-20T11:58:25;82609.59;;;10.76;37.63
64711;BME280;51139;45.626;6.850;2023-02-20T12:00:53;82605.19;;;11.55;38.98
64711;BME280;51139;45.626;6.850;2023-02-20T12:03:29;82609.03;;;11.11;34.76
64711;BME280;51139;45.626;6.850;2023-02-20T12:05:57;82609.84;;;10.63;37.46
64711;BME280;51139;45.626;6.850;2023-02-20T12:11:20;82601.28;;;11.56;35.49
64711;BME280;51139;45.626;6.850;2023-02-20T12:13:48;82601.91;;;12.07;36.26
64711;BME280;51139;45.626;6.850;2023-02-20T12:16:27;82596.63;;;12.07;34.55
64711;BME280;51139;45.626;6.850;2023-02-20T12:19:02;82604.38;;;11.88;33.46
64711;BME280;51139;45.626;6.850;2023-02-20T12:24:46;82593.94;;;11.21;34.19
64711;BME280;51139;45.626;6.850;2023-02-20T12:27:33;82584.44;;;11.61;38.67
64711;BME280;51139;45.626;6.850;2023-02-20T12:33:17;82584.31;;;11.77;38.45
64711;BME280;51139;45.626;6.850;2023-02-20T12:38:48;82578.41;;;10.92;34.20
64711;BME280;51139;45.626;6.850;2023-02-20T13:00:35;82563.63;;;11.93;34.07
64711;BME280;51139;45.626;6.850;2023-02-20T13:03:10;82565.44;;;12.43;35.69
64711;BME280;51139;45.626;6.850;2023-02-20T13:05:41;82561.50;;;12.62;34.02
64711;BME280;51139;45.626;6.850;2023-02-20T13:08:14;82561.03;;;12.55;36.48
64711;BME280;51139;45.626;6.850;2023-02-20T13:10:52;82556.59;;;12.58;35.80
64711;BME280;51139;45.626;6.850;2023-02-20T13:13:20;82559.50;;;12.35;36.07
64711;BME280;51139;45.626;6.850;2023-02-20T13:16:08;82554.88;;;12.53;36.49
64711;BME280;51139;45.626;6.850;2023-02-20T13:18:48;82553.13;;;12.65;37.82
64711;BME280;51139;45.626;6.850;2023-02-20T13:21:17;82554.00;;;12.50;37.81
64711;BME280;51139;45.626;6.850;2023-02-20T13:23:47;82546.00;;;12.40;37.61
64711;BME280;51139;45.626;6.850;2023-02-20T13:29:20;82544.59;;;12.04;36.25
64711;BME280;51139;45.626;6.850;2023-02-20T13:31:54;82545.84;;;12.21;35.84
64711;BME280;51139;45.626;6.850;2023-02-20T13:36:48;82535.38;;;12.23;36.10
64711;BME280;51139;45.626;6.850;2023-02-20T13:39:34;82536.00;;;11.78;35.03
64711;BME280;51139;45.626;6.850;2023-02-20T13:42:02;82535.63;;;11.39;37.32
64711;BME280;51139;45.626;6.850;2023-02-20T13:44:40;82533.81;;;11.49;34.05
64711;BME280;51139;45.626;6.850;2023-02-20T14:02:45;82522.09;;;11.52;34.85
64711;BME280;51139;45.626;6.850;2023-02-20T14:05:20;82515.16;;;11.57;35.81
64711;BME280;51139;45.626;6.850;2023-02-20T14:07:46;82519.03;;;11.38;35.87
64711;BME280;51139;45.626;6.850;2023-02-20T14:10:24;82516.44;;;11.48;34.75
64711;BME280;51139;45.626;6.850;2023-02-20T14:13:11;82512.94;;;11.28;38.32
64711;BME280;51139;45.626;6.850;2023-02-20T14:15:51;82508.13;;;11.87;37.73
64711;BME280;51139;45.626;6.850;2023-02-20T14:21:15;82514.25;;;11.37;33.84
64711;BME280;51139;45.626;6.850;2023-02-20T14:23:39;82509.38;;;11.68;34.79
64711;BME280;51139;45.626;6.850;2023-02-20T14:26:18;82512.06;;;12.04;38.52
64711;BME280;51139;45.626;6.850;2023-02-20T14:28:47;82514.47;;;12.09;34.68
64711;BME280;51139;45.626;6.850;2023-02-20T14:31:25;82512.31;;;11.37;34.91
64711;BME280;51139;45.626;6.850;2023-02-20T14:33:54;82509.06;;;11.64;37.27
64711;BME280;51139;45.626;6.850;2023-02-20T14:39:02;82510.94;;;11.89;34.65
64711;BME280;51139;45.626;6.850;2023-02-20T14:41:30;82511.03;;;11.81;35.43
64711;BME280;51139;45.626;6.850;2023-02-20T14:43:59;82509.22;;;11.49;35.79
64711;BME280;51139;45.626;6.850;2023-02-20T14:46:34;82511.22;;;10.72;35.84
64711;BME280;51139;45.626;6.850;2023-02-20T14:49:12;82513.41;;;10.91;35.37
64711;BME280;51139;45.626;6.850;2023-02-20T14:51:39;82508.47;;;11.13;37.00
64711;BME280;51139;45.626;6.850;2023-02-20T14:56:39;82506.25;;;10.76;34.95
64711;BME280;51139;45.626;6.850;2023-02-20T15:01:47;82506.28;;;10.94;34.77
64711;BME280;51139;45.626;6.850;2023-02-20T15:04:15;82513.06;;;10.87;35.88
64711;BME280;51139;45.626;6.850;2023-02-20T15:06:43;82514.03;;;11.43;36.70
64711;BME280;51139;45.626;6.850;2023-02-20T15:09:10;82508.25;;;11.36;33.88
64711;BME280;51139;45.626;6.850;2023-02-20T15:11:48;82506.94;;;11.45;35.05
64711;BME280;51139;45.626;6.850;2023-02-20T15:14:21;82515.81;;;11.22;36.96
64711;BME280;51139;45.626;6.850;2023-02-20T15:16:47;82510.34;;;11.20;35.95